createdAt,value
2022-12-11T00:00:57.062Z,42.00
2022-12-11T00:03:27.012Z,41.90
2022-12-11T00:05:54.982Z,42.43
2022-12-11T00:08:23.187Z,43.50
2022-12-11T00:10:51.444Z,41.17
2022-12-11T00:13:19.336Z,39.33
2022-12-11T00:15:47.282Z,46.83
2022-12-11T00:18:16.493Z,39.73
2022-12-11T00:20:44.433Z,43.00
2022-12-11T00:23:12.349Z,39.40
2022-12-11T00:25:43.932Z,43.67
2022-12-11T00:28:12.089Z,43.80
2022-12-11T00:30:40.779Z,44.17
2022-12-11T00:33:08.731Z,44.07
2022-12-11T00:35:41.343Z,42.23
2022-12-11T00:38:09.775Z,45.67
2022-12-11T00:40:38.357Z,46.43
2022-12-11T00:43:06.311Z,44.77
2022-12-11T00:45:37.593Z,44.77
2022-12-11T00:48:06.660Z,48.97
2022-12-11T00:50:37.232Z,48.53
2022-12-11T00:53:07.641Z,49.73
2022-12-11T00:55:38.601Z,46.77
2022-12-11T00:58:06.825Z,49.83
2022-12-11T01:00:35.305Z,56.80
2022-12-11T01:03:03.266Z,51.40
2022-12-11T01:05:31.451Z,48.80
2022-12-11T01:07:59.503Z,51.27
2022-12-11T01:10:28.014Z,47.00
2022-12-11T01:12:57.944Z,53.23
2022-12-11T01:15:28.429Z,44.97
2022-12-11T01:17:56.339Z,46.40
2022-12-11T01:20:25.856Z,49.40
2022-12-11T01:22:54.487Z,54.97
2022-12-11T01:25:22.808Z,50.90
2022-12-11T01:27:53.523Z,48.93
2022-12-11T01:30:22.924Z,51.67
2022-12-11T01:32:51.312Z,45.53
2022-12-11T01:35:20.244Z,45.00
2022-12-11T01:37:48.564Z,42.22
2022-12-11T01:40:17.933Z,37.40
2022-12-11T01:42:45.881Z,39.00
2022-12-11T01:45:30.616Z,39.90
2022-12-11T01:48:02.985Z,39.70
2022-12-11T01:50:34.039Z,40.15
2022-12-11T01:53:03.561Z,37.70
2022-12-11T01:55:31.446Z,41.13
2022-12-11T01:57:59.693Z,39.93
2022-12-11T02:00:29.002Z,37.80
2022-12-11T02:02:56.994Z,37.10
2022-12-11T02:05:24.838Z,37.00
2022-12-11T02:07:56.558Z,31.97
2022-12-11T02:10:29.362Z,37.70
2022-12-11T02:13:01.881Z,40.50
2022-12-11T02:15:37.648Z,40.33
2022-12-11T02:18:17.643Z,39.20
2022-12-11T02:20:52.110Z,36.55
2022-12-11T02:23:53.545Z,34.20
2022-12-11T02:26:35.747Z,37.53
2022-12-11T02:29:08.271Z,38.40
2022-12-11T02:31:39.786Z,41.97
2022-12-11T02:34:13.105Z,38.23
2022-12-11T02:36:46.120Z,39.07
2022-12-11T02:39:16.544Z,36.20
2022-12-11T02:41:49.821Z,41.30
2022-12-11T02:44:22.087Z,39.43
2022-12-11T02:46:50.275Z,44.47
2022-12-11T02:49:19.743Z,41.83
2022-12-11T02:51:47.683Z,41.33
2022-12-11T02:54:20.811Z,45.50
2022-12-11T02:56:52.810Z,33.93
2022-12-11T02:59:29.520Z,40.80
2022-12-11T03:01:57.559Z,42.60
2022-12-11T03:04:25.560Z,37.67
2022-12-11T03:06:59.904Z,40.93
2022-12-11T03:09:28.698Z,34.13
2022-12-11T03:11:56.631Z,40.10
2022-12-11T03:14:25.856Z,40.60
2022-12-11T03:17:00.994Z,34.03
2022-12-11T03:19:35.537Z,36.20
2022-12-11T03:22:11.780Z,37.00
2022-12-11T03:24:45.074Z,35.87
2022-12-11T03:27:18.587Z,36.17
2022-12-11T03:29:55.009Z,36.90
2022-12-11T03:32:27.866Z,39.00
2022-12-11T03:35:00.924Z,39.40
2022-12-11T03:37:32.376Z,40.17
2022-12-11T03:40:06.377Z,38.73
2022-12-11T03:42:35.301Z,42.27
2022-12-11T03:45:08.597Z,39.72
2022-12-11T03:47:38.906Z,35.30
2022-12-11T03:50:10.636Z,37.80
2022-12-11T03:52:45.513Z,36.90
2022-12-11T03:55:15.977Z,43.90
2022-12-11T03:57:44.521Z,41.37
2022-12-11T04:00:16.711Z,44.30
2022-12-11T04:03:11.211Z,32.03
2022-12-11T04:05:41.253Z,41.72
2022-12-11T04:08:09.194Z,36.57
2022-12-11T04:10:37.263Z,39.10
2022-12-11T04:13:05.558Z,37.90
2022-12-11T04:15:34.197Z,46.17
2022-12-11T04:18:19.959Z,42.53
2022-12-11T04:21:05.271Z,35.93
2022-12-11T04:23:50.791Z,36.27
2022-12-11T04:26:20.929Z,38.53
2022-12-11T04:28:52.509Z,31.17
2022-12-11T04:31:23.738Z,33.67
2022-12-11T04:33:51.730Z,37.27
2022-12-11T04:36:19.780Z,35.33
2022-12-11T04:38:47.764Z,37.33
2022-12-11T04:41:16.836Z,34.33
2022-12-11T04:43:45.449Z,31.07
2022-12-11T04:46:18.150Z,29.80
2022-12-11T04:48:52.385Z,30.50
2022-12-11T04:51:23.634Z,28.07
2022-12-11T04:53:51.825Z,26.83
2022-12-11T04:56:19.860Z,30.30
2022-12-11T04:58:48.278Z,27.53
2022-12-11T05:01:17.834Z,26.27
2022-12-11T05:03:47.607Z,26.33
2022-12-11T05:06:15.792Z,27.53
2022-12-11T05:08:45.144Z,27.58
2022-12-11T05:11:15.062Z,24.63
2022-12-11T05:13:43.502Z,26.92
2022-12-11T05:16:13.488Z,25.60
2022-12-11T05:18:41.784Z,25.20
2022-12-11T05:21:13.069Z,27.13
2022-12-11T05:23:41.541Z,24.05
2022-12-11T05:26:12.613Z,29.03
2022-12-11T05:28:41.760Z,30.80
2022-12-11T05:31:13.709Z,26.30
2022-12-11T05:33:41.809Z,25.23
2022-12-11T05:36:17.144Z,23.17
2022-12-11T05:38:45.101Z,24.37
2022-12-11T05:41:15.537Z,25.73
2022-12-11T05:43:43.832Z,23.83
2022-12-11T05:46:14.850Z,28.50
2022-12-11T05:51:23.935Z,26.43
2022-12-11T05:53:53.703Z,26.87
2022-12-11T05:56:23.164Z,24.70
2022-12-11T05:58:51.672Z,25.33
2022-12-11T06:01:23.023Z,24.93
2022-12-11T06:03:51.552Z,28.23
2022-12-11T06:06:19.418Z,27.33
2022-12-11T06:08:51.296Z,25.80
2022-12-11T06:11:23.749Z,27.33
2022-12-11T06:13:52.393Z,26.67
2022-12-11T06:16:20.960Z,30.30
2022-12-11T06:18:49.097Z,25.93
2022-12-11T06:21:19.438Z,31.53
2022-12-11T06:23:49.821Z,27.83
2022-12-11T06:26:19.232Z,24.93
2022-12-11T06:28:48.503Z,26.13
2022-12-11T06:31:16.520Z,31.87
2022-12-11T06:33:44.534Z,29.30
2022-12-11T06:36:15.028Z,30.83
2022-12-11T06:38:43.114Z,32.80
2022-12-11T06:41:12.716Z,30.37
2022-12-11T06:43:42.898Z,30.15
2022-12-11T06:46:13.021Z,25.57
2022-12-11T06:48:42.161Z,25.87
2022-12-11T06:51:11.527Z,27.60
2022-12-11T06:53:39.756Z,33.33
2022-12-11T06:56:09.566Z,28.20
2022-12-11T06:58:40.290Z,31.93
2022-12-11T07:01:15.861Z,28.67
2022-12-11T07:03:46.665Z,31.00
2022-12-11T07:06:14.935Z,30.60
2022-12-11T07:08:43.514Z,26.57
2022-12-11T07:11:13.050Z,25.83
2022-12-11T07:13:42.965Z,31.73
2022-12-11T07:16:11.976Z,29.33
2022-12-11T07:18:41.406Z,33.63
2022-12-11T07:21:11.124Z,35.40
2022-12-11T07:23:39.263Z,28.17
2022-12-11T07:26:08.096Z,24.73
2022-12-11T07:28:36.743Z,25.63
2022-12-11T07:31:08.386Z,30.70
2022-12-11T07:33:36.466Z,27.55
2022-12-11T07:36:05.008Z,27.27
2022-12-11T07:38:33.101Z,34.13
2022-12-11T07:41:02.331Z,28.33
2022-12-11T07:43:32.363Z,29.27
2022-12-11T07:46:02.916Z,29.00
2022-12-11T07:48:32.439Z,27.50
2022-12-11T07:51:09.935Z,26.13
2022-12-11T07:53:37.828Z,32.42
2022-12-11T07:56:06.556Z,27.97
2022-12-11T07:58:34.603Z,33.63
2022-12-11T08:01:02.629Z,24.07
2022-12-11T08:03:32.033Z,28.37
2022-12-11T08:05:59.962Z,27.57
2022-12-11T08:08:27.912Z,33.33
2022-12-11T08:10:55.791Z,31.93
2022-12-11T08:13:23.730Z,28.73
2022-12-11T08:15:51.996Z,27.17
2022-12-11T08:18:21.649Z,28.00
2022-12-11T08:20:50.913Z,27.83
2022-12-11T08:23:19.112Z,33.37
2022-12-11T08:25:46.990Z,31.23
2022-12-11T08:28:14.930Z,31.90
2022-12-11T08:30:42.891Z,30.50
2022-12-11T08:33:10.821Z,28.37
2022-12-11T08:35:40.412Z,29.03
2022-12-11T08:38:09.609Z,31.83
2022-12-11T08:40:37.485Z,32.60
2022-12-11T08:43:05.380Z,29.13
2022-12-11T08:45:33.317Z,28.50
2022-12-11T08:48:01.423Z,30.93
2022-12-11T08:50:29.332Z,32.00
2022-12-11T08:52:57.509Z,35.97
2022-12-11T08:55:26.944Z,32.77
2022-12-11T08:57:55.396Z,32.37
2022-12-11T09:00:24.048Z,27.00
2022-12-11T09:02:51.909Z,30.70
2022-12-11T09:05:19.869Z,35.90
2022-12-11T09:07:47.828Z,36.63
2022-12-11T09:10:15.774Z,33.63
2022-12-11T09:12:45.053Z,32.00
2022-12-11T09:15:13.463Z,32.53
2022-12-11T09:17:41.819Z,31.93
2022-12-11T09:20:10.361Z,31.37
2022-12-11T09:22:38.583Z,33.97
2022-12-11T09:25:07.529Z,33.17
2022-12-11T09:27:35.819Z,32.47
2022-12-11T09:30:05.881Z,30.02
2022-12-11T09:32:33.802Z,27.20
2022-12-11T09:35:01.628Z,33.03
2022-12-11T09:37:29.716Z,32.47
2022-12-11T09:40:01.276Z,38.37
2022-12-11T09:42:43.460Z,31.63
2022-12-11T09:45:16.123Z,27.97
2022-12-11T09:47:45.579Z,34.20
2022-12-11T09:50:18.399Z,36.43
2022-12-11T09:53:04.093Z,45.07
2022-12-11T09:55:39.512Z,38.13
2022-12-11T09:58:15.488Z,45.83
2022-12-11T10:00:48.958Z,41.37
2022-12-11T10:03:32.894Z,50.17
2022-12-11T10:06:08.540Z,42.80
2022-12-11T10:08:43.476Z,40.63
2022-12-11T10:11:31.029Z,47.33
2022-12-11T10:14:07.015Z,49.03
2022-12-11T10:16:41.108Z,55.00
2022-12-11T10:19:17.358Z,51.27
2022-12-11T10:21:47.140Z,47.60
2022-12-11T10:24:57.589Z,51.33
2022-12-11T10:27:19.150Z,55.20
2022-12-11T10:29:47.434Z,58.53
2022-12-11T10:32:24.763Z,56.43
2022-12-11T10:35:01.131Z,62.50
2022-12-11T10:37:29.339Z,55.87
2022-12-11T10:39:57.268Z,63.43
2022-12-11T10:42:25.268Z,56.87
2022-12-11T10:44:57.653Z,65.07
2022-12-11T10:47:27.232Z,53.40
2022-12-11T10:49:58.292Z,56.70
2022-12-11T10:52:29.407Z,64.40
2022-12-11T10:55:01.127Z,57.03
2022-12-11T10:57:31.009Z,53.30
2022-12-11T11:00:00.515Z,53.73
2022-12-11T11:02:33.060Z,54.93
2022-12-11T11:05:11.959Z,59.90
2022-12-11T11:07:40.234Z,49.43
2022-12-11T11:10:16.910Z,52.23
2022-12-11T11:12:49.033Z,45.73
2022-12-11T11:15:20.487Z,49.43
2022-12-11T11:17:55.492Z,45.00
2022-12-11T11:20:26.514Z,45.63
2022-12-11T11:22:56.861Z,38.43
2022-12-11T11:25:26.534Z,40.17
2022-12-11T11:27:56.453Z,37.47
2022-12-11T11:30:27.350Z,37.67
2022-12-11T11:33:00.735Z,37.37
2022-12-11T11:35:30.905Z,36.37
2022-12-11T11:38:04.727Z,40.93
2022-12-11T11:40:37.853Z,33.27
2022-12-11T11:43:15.172Z,37.37
2022-12-11T11:45:47.806Z,41.17
2022-12-11T11:48:29.565Z,38.23
2022-12-11T11:50:58.446Z,32.93
2022-12-11T11:53:32.889Z,41.97
2022-12-11T11:56:08.291Z,36.73
2022-12-11T11:58:41.738Z,32.37
2022-12-11T12:01:16.048Z,38.10
2022-12-11T12:03:46.263Z,41.13
2022-12-11T12:06:23.557Z,36.07
2022-12-11T12:08:57.443Z,33.60
2022-12-11T12:11:32.413Z,37.47
2022-12-11T12:14:22.759Z,36.97
2022-12-11T12:17:07.417Z,33.33
2022-12-11T12:19:46.205Z,37.90
2022-12-11T12:22:28.093Z,33.97
2022-12-11T12:25:04.010Z,34.00
2022-12-11T12:27:55.017Z,31.70
2022-12-11T12:30:24.065Z,34.53
2022-12-11T12:33:11.846Z,35.20
2022-12-11T12:35:50.306Z,41.60
2022-12-11T12:38:27.669Z,35.20
2022-12-11T12:41:04.127Z,39.63
2022-12-11T12:43:58.219Z,40.17
2022-12-11T12:46:37.682Z,37.17
2022-12-11T12:49:08.828Z,32.17
2022-12-11T12:51:38.344Z,36.03
2022-12-11T12:54:12.487Z,38.00
2022-12-11T12:56:43.614Z,36.67
2022-12-11T12:59:21.742Z,37.37
2022-12-11T13:01:55.077Z,34.10
2022-12-11T13:04:55.461Z,33.57
2022-12-11T13:07:30.457Z,37.87
2022-12-11T13:10:01.813Z,38.53
2022-12-11T13:12:42.143Z,31.27
2022-12-11T13:15:34.488Z,31.93
2022-12-11T13:18:04.594Z,33.70
2022-12-11T13:20:34.675Z,29.77
2022-12-11T13:23:20.334Z,29.10
2022-12-11T13:25:54.505Z,23.30
2022-12-11T13:28:36.615Z,27.27
2022-12-11T13:31:09.009Z,23.87
2022-12-11T13:33:43.675Z,27.03
2022-12-11T13:36:32.255Z,29.67
2022-12-11T13:39:04.499Z,25.63
2022-12-11T13:41:36.142Z,26.50
2022-12-11T13:44:05.627Z,21.63
2022-12-11T13:46:37.374Z,30.40
2022-12-11T13:49:08.325Z,22.13
2022-12-11T13:51:37.885Z,26.47
2022-12-11T13:54:17.330Z,24.43
2022-12-11T13:56:59.529Z,28.00
2022-12-11T13:59:31.029Z,25.30
2022-12-11T14:02:03.976Z,28.10
2022-12-11T14:04:34.918Z,31.27
2022-12-11T14:07:07.639Z,23.97
2022-12-11T14:09:41.007Z,27.53
2022-12-11T14:12:17.327Z,25.80
2022-12-11T14:14:47.952Z,25.23
2022-12-11T14:17:19.220Z,24.53
2022-12-11T14:19:48.863Z,25.53
2022-12-11T14:22:21.078Z,26.17
2022-12-11T14:24:55.962Z,23.23
2022-12-11T14:27:25.167Z,21.57
2022-12-11T14:29:53.457Z,27.60
2022-12-11T14:32:31.267Z,25.40
2022-12-11T14:35:01.613Z,30.87
2022-12-11T14:37:29.848Z,21.17
2022-12-11T14:40:03.698Z,23.83
2022-12-11T14:42:35.028Z,24.33
2022-12-11T14:45:08.251Z,27.70
2022-12-11T14:47:42.032Z,27.33
2022-12-11T14:50:18.404Z,26.87
2022-12-11T14:52:49.100Z,27.57
2022-12-11T14:55:22.436Z,29.40
2022-12-11T14:57:55.994Z,27.70
2022-12-11T15:00:26.307Z,26.43
2022-12-11T15:03:02.206Z,25.37
2022-12-11T15:05:35.774Z,26.00
2022-12-11T15:08:24.921Z,30.47
2022-12-11T15:11:07.352Z,26.93
2022-12-11T15:13:37.779Z,28.30
2022-12-11T15:16:08.707Z,28.17
2022-12-11T15:18:39.269Z,26.73
2022-12-11T15:21:10.439Z,28.17
2022-12-11T15:23:51.198Z,29.10
2022-12-11T15:26:20.828Z,32.73
2022-12-11T15:28:48.800Z,33.27
2022-12-11T15:31:26.874Z,28.43
2022-12-11T15:33:55.167Z,29.33
2022-12-11T15:36:26.645Z,30.37
2022-12-11T15:38:54.623Z,29.53
2022-12-11T15:41:25.031Z,27.60
2022-12-11T15:43:58.847Z,33.13
2022-12-11T15:46:27.496Z,27.27
2022-12-11T15:48:58.449Z,28.73
2022-12-11T15:51:27.494Z,29.33
2022-12-11T15:53:55.427Z,32.37
2022-12-11T15:56:24.706Z,29.97
2022-12-11T15:58:52.583Z,30.10
2022-12-11T16:01:20.842Z,28.17
2022-12-11T16:03:50.354Z,27.13
2022-12-11T16:06:18.305Z,28.23
2022-12-11T16:08:46.199Z,29.53
2022-12-11T16:11:15.195Z,26.93
2022-12-11T16:13:44.425Z,26.53
2022-12-11T16:16:12.428Z,26.10
2022-12-11T16:18:40.464Z,31.33
2022-12-11T16:21:08.502Z,32.93
2022-12-11T16:23:36.429Z,25.97
2022-12-11T16:26:09.237Z,25.83
2022-12-11T16:28:37.258Z,27.93
2022-12-11T16:31:11.463Z,30.90
2022-12-11T16:33:39.559Z,25.07
2022-12-11T16:36:13.735Z,28.33
2022-12-11T16:38:41.597Z,29.00
2022-12-11T16:41:09.504Z,24.30
2022-12-11T16:43:37.414Z,28.67
2022-12-11T16:46:07.007Z,29.30
2022-12-11T16:48:34.938Z,27.27
2022-12-11T16:51:02.886Z,32.20
2022-12-11T16:53:30.841Z,29.90
2022-12-11T16:55:58.677Z,31.60
2022-12-11T16:58:26.539Z,31.13
2022-12-11T17:01:02.272Z,25.63
2022-12-11T17:03:32.996Z,29.00
2022-12-11T17:06:00.926Z,25.83
2022-12-11T17:08:28.906Z,28.73
2022-12-11T17:10:56.854Z,26.93
2022-12-11T17:13:24.767Z,30.87
2022-12-11T17:15:54.091Z,28.37
2022-12-11T17:18:22.152Z,32.20
2022-12-11T17:20:52.941Z,33.47
2022-12-11T17:23:21.034Z,26.80
2022-12-11T17:25:49.831Z,30.53
2022-12-11T17:28:17.708Z,30.60
2022-12-11T17:30:48.593Z,27.63
2022-12-11T17:33:17.095Z,28.30
2022-12-11T17:35:45.023Z,30.23
2022-12-11T17:38:14.237Z,30.93
2022-12-11T17:40:42.286Z,26.67
2022-12-11T17:43:11.067Z,28.03
2022-12-11T17:45:42.675Z,27.98
2022-12-11T17:48:10.705Z,33.10
2022-12-11T17:50:41.516Z,27.57
2022-12-11T17:53:09.747Z,29.90
2022-12-11T17:55:42.785Z,33.03
2022-12-11T17:58:11.515Z,29.50
2022-12-11T18:00:39.983Z,28.83
2022-12-11T18:03:08.176Z,26.07
2022-12-11T18:05:36.539Z,25.63
2022-12-11T18:08:04.652Z,28.03
2022-12-11T18:10:32.790Z,26.20
2022-12-11T18:13:02.369Z,27.50
2022-12-11T18:15:30.277Z,27.40
2022-12-11T18:17:58.371Z,28.37
2022-12-11T18:20:27.519Z,27.53
2022-12-11T18:22:56.881Z,26.67
2022-12-11T18:25:25.053Z,26.80
2022-12-11T18:27:55.037Z,25.83
2022-12-11T18:30:25.387Z,23.20
2022-12-11T18:32:53.345Z,22.47
2022-12-11T18:35:21.569Z,29.33
2022-12-11T18:37:49.432Z,31.10
2022-12-11T18:40:17.442Z,27.43
2022-12-11T18:42:45.368Z,29.87
2022-12-11T18:45:13.531Z,26.10
2022-12-11T18:47:42.883Z,27.73
2022-12-11T18:50:10.757Z,29.00
2022-12-11T18:52:38.610Z,26.50
2022-12-11T18:55:08.594Z,29.07
2022-12-11T18:57:36.623Z,28.13
2022-12-11T19:00:07.930Z,27.70
2022-12-11T19:02:36.248Z,27.87
2022-12-11T19:05:06.284Z,27.73
2022-12-11T19:07:34.203Z,21.17
2022-12-11T19:10:02.145Z,25.33
2022-12-11T19:12:30.066Z,29.80
2022-12-11T19:14:57.907Z,26.73
2022-12-11T19:17:25.783Z,28.53
2022-12-11T19:19:53.680Z,28.53
2022-12-11T19:22:23.001Z,33.50
2022-12-11T19:24:50.958Z,31.30
2022-12-11T19:27:18.817Z,27.97
2022-12-11T19:29:46.745Z,24.17
2022-12-11T19:32:14.698Z,26.13
2022-12-11T19:34:42.610Z,29.10
2022-12-11T19:37:10.563Z,30.03
2022-12-11T19:39:41.433Z,32.83
2022-12-11T19:42:09.333Z,27.93
2022-12-11T19:44:37.323Z,30.10
2022-12-11T19:47:11.493Z,33.80
2022-12-11T19:49:39.552Z,30.27
2022-12-11T19:52:07.486Z,28.70
2022-12-11T19:54:35.595Z,29.70
2022-12-11T19:57:05.105Z,28.10
2022-12-11T19:59:33.039Z,25.17
2022-12-11T20:02:01.035Z,29.23
2022-12-11T20:04:29.169Z,28.63
2022-12-11T20:06:57.005Z,27.97
2022-12-11T20:09:25.259Z,36.57
2022-12-11T20:11:53.544Z,28.77
2022-12-11T20:14:25.317Z,27.65
2022-12-11T20:17:11.873Z,28.63
2022-12-11T20:19:40.823Z,29.60
2022-12-11T20:22:09.151Z,26.07
2022-12-11T20:24:37.688Z,30.43
2022-12-11T20:27:05.613Z,26.40
2022-12-11T20:29:34.899Z,27.23
2022-12-11T20:32:03.055Z,25.95
2022-12-11T20:34:31.346Z,28.80
2022-12-11T20:37:00.264Z,25.75
2022-12-11T20:39:28.970Z,28.13
2022-12-11T20:41:56.907Z,26.53
2022-12-11T20:44:24.968Z,25.95
2022-12-11T20:46:54.662Z,25.23
2022-12-11T20:49:22.712Z,27.43
2022-12-11T20:51:50.579Z,25.20
2022-12-11T20:54:18.868Z,28.67
2022-12-11T20:56:46.948Z,30.00
2022-12-11T20:59:14.953Z,33.03
2022-12-11T21:01:42.880Z,26.67
2022-12-11T21:04:12.584Z,27.50
2022-12-11T21:06:41.928Z,27.07
2022-12-11T21:09:17.724Z,26.03
2022-12-11T21:11:45.854Z,23.47
2022-12-11T21:14:14.465Z,23.20
2022-12-11T21:16:42.444Z,25.40
2022-12-11T21:19:16.724Z,30.73
2022-12-11T21:21:46.177Z,27.87
2022-12-11T21:24:16.084Z,35.07
2022-12-11T21:26:44.097Z,30.07
2022-12-11T21:29:12.299Z,29.47
2022-12-11T21:31:42.909Z,28.60
2022-12-11T21:34:13.151Z,27.50
2022-12-11T21:36:41.690Z,27.37
2022-12-11T21:39:12.120Z,24.07
2022-12-11T21:41:40.729Z,24.40
2022-12-11T21:46:56.939Z,23.60
2022-12-11T21:49:26.184Z,26.37
2022-12-11T21:51:54.147Z,22.97
2022-12-11T21:54:22.151Z,22.17
2022-12-11T21:56:50.127Z,26.70
2022-12-11T21:59:18.065Z,27.03
2022-12-11T22:01:47.165Z,25.53
2022-12-11T22:04:16.161Z,23.73
2022-12-11T22:06:47.484Z,25.50
2022-12-11T22:09:15.868Z,24.00
2022-12-11T22:11:46.101Z,25.37
2022-12-11T22:14:14.790Z,23.63
2022-12-11T22:16:43.068Z,23.55
2022-12-11T22:19:11.500Z,21.27
2022-12-11T22:21:39.623Z,22.87
2022-12-11T22:24:09.383Z,25.45
2022-12-11T22:26:37.398Z,23.27
2022-12-11T22:29:05.343Z,22.80
2022-12-11T22:31:33.481Z,23.80
2022-12-11T22:34:01.400Z,25.43
2022-12-11T22:36:29.329Z,21.42
2022-12-11T22:38:57.285Z,21.52
2022-12-11T22:41:28.198Z,21.90
2022-12-11T22:43:56.957Z,20.38
2022-12-11T22:46:27.225Z,24.73
2022-12-11T22:48:55.517Z,19.63
2022-12-11T22:51:23.894Z,22.25
2022-12-11T22:53:51.851Z,25.83
2022-12-11T22:56:19.784Z,22.53
2022-12-11T22:58:49.016Z,24.27
2022-12-11T23:01:20.006Z,24.63
2022-12-11T23:03:48.267Z,22.38
2022-12-11T23:06:20.990Z,22.35
2022-12-11T23:08:49.232Z,24.25
2022-12-11T23:11:19.210Z,25.00
2022-12-11T23:13:48.526Z,23.98
2022-12-11T23:16:16.921Z,25.73
2022-12-11T23:18:45.137Z,21.87
2022-12-11T23:21:14.372Z,23.50
2022-12-11T23:23:42.720Z,23.90
2022-12-11T23:26:13.035Z,21.90
2022-12-11T23:28:42.025Z,22.05
2022-12-11T23:31:11.510Z,28.70
2022-12-11T23:33:39.415Z,21.87
2022-12-11T23:36:08.381Z,20.20
2022-12-11T23:38:36.639Z,25.10
2022-12-11T23:41:05.863Z,21.87
2022-12-11T23:43:35.680Z,23.60
2022-12-11T23:46:03.785Z,19.10
2022-12-11T23:48:34.450Z,22.05
2022-12-11T23:51:03.444Z,19.30
2022-12-11T23:53:31.368Z,20.83
2022-12-11T23:56:04.865Z,20.50
2022-12-11T23:58:33.039Z,20.97
